sensor_id;sensor_type;location;lat;lon;timestamp;P1;durP1;ratioP1;P2;durP2;ratioP2
7903;SDS011;3997;48.416;8.512;2023-07-31T00:00:56;7.22;;;2.58;;
7903;SDS011;3997;48.416;8.512;2023-07-31T00:03:22;2.80;;;2.60;;
7903;SDS011;3997;48.416;8.512;2023-07-31T00:05:50;3.40;;;2.50;;
7903;SDS011;3997;48.416;8.512;2023-07-31T00:08:16;2.83;;;2.53;;
7903;SDS011;3997;48.416;8.512;2023-07-31T00:10:43;3.10;;;2.40;;
7903;SDS011;3997;48.416;8.512;2023-07-31T00:13:09;4.20;;;2.50;;
7903;SDS011;3997;48.416;8.512;2023-07-31T00:15:36;3.90;;;2.40;;
7903;SDS011;3997;48.416;8.512;2023-07-31T00:18:02;2.47;;;2.03;;
7903;SDS011;3997;48.416;8.512;2023-07-31T00:20:29;2.35;;;2.10;;
7903;SDS011;3997;48.416;8.512;2023-07-31T00:22:58;2.95;;;2.70;;
7903;SDS011;3997;48.416;8.512;2023-07-31T00:25:25;4.10;;;2.42;;
7903;SDS011;3997;48.416;8.512;2023-07-31T00:27:51;3.17;;;2.08;;
7903;SDS011;3997;48.416;8.512;2023-07-31T00:30:18;2.35;;;2.20;;
7903;SDS011;3997;48.416;8.512;2023-07-31T00:32:45;2.55;;;2.40;;
7903;SDS011;3997;48.416;8.512;2023-07-31T00:35:11;5.03;;;2.65;;
7903;SDS011;3997;48.416;8.512;2023-07-31T00:37:38;5.22;;;2.60;;
7903;SDS011;3997;48.416;8.512;2023-07-31T00:40:06;3.25;;;2.50;;
7903;SDS011;3997;48.416;8.512;2023-07-31T00:42:33;3.95;;;2.70;;
7903;SDS011;3997;48.416;8.512;2023-07-31T00:44:59;3.45;;;2.35;;
7903;SDS011;3997;48.416;8.512;2023-07-31T00:47:26;3.33;;;2.28;;
7903;SDS011;3997;48.416;8.512;2023-07-31T00:49:52;5.15;;;2.35;;
7903;SDS011;3997;48.416;8.512;2023-07-31T00:52:19;3.13;;;2.40;;
7903;SDS011;3997;48.416;8.512;2023-07-31T00:54:46;2.60;;;2.28;;
7903;SDS011;3997;48.416;8.512;2023-07-31T00:57:13;3.65;;;2.60;;
7903;SDS011;3997;48.416;8.512;2023-07-31T00:59:40;3.38;;;2.60;;
7903;SDS011;3997;48.416;8.512;2023-07-31T01:02:06;2.65;;;2.45;;
7903;SDS011;3997;48.416;8.512;2023-07-31T01:04:33;5.10;;;2.45;;
7903;SDS011;3997;48.416;8.512;2023-07-31T01:07:01;2.55;;;2.33;;
7903;SDS011;3997;48.416;8.512;2023-07-31T01:09:29;4.78;;;2.47;;
7903;SDS011;3997;48.416;8.512;2023-07-31T01:12:00;2.70;;;2.50;;
7903;SDS011;3997;48.416;8.512;2023-07-31T01:14:29;6.35;;;2.50;;
7903;SDS011;3997;48.416;8.512;2023-07-31T01:16:55;3.92;;;2.70;;
7903;SDS011;3997;48.416;8.512;2023-07-31T01:19:22;4.90;;;2.60;;
7903;SDS011;3997;48.416;8.512;2023-07-31T01:24:33;3.25;;;2.78;;
7903;SDS011;3997;48.416;8.512;2023-07-31T01:27:04;3.13;;;2.53;;
7903;SDS011;3997;48.416;8.512;2023-07-31T01:29:36;2.80;;;2.60;;
7903;SDS011;3997;48.416;8.512;2023-07-31T01:32:04;3.75;;;2.50;;
7903;SDS011;3997;48.416;8.512;2023-07-31T01:34:31;3.55;;;2.40;;
7903;SDS011;3997;48.416;8.512;2023-07-31T01:36:58;3.40;;;2.70;;
7903;SDS011;3997;48.416;8.512;2023-07-31T01:39:25;3.10;;;2.67;;
7903;SDS011;3997;48.416;8.512;2023-07-31T01:41:51;3.03;;;2.60;;
7903;SDS011;3997;48.416;8.512;2023-07-31T01:44:19;2.83;;;2.63;;
7903;SDS011;3997;48.416;8.512;2023-07-31T01:46:45;2.95;;;2.58;;
7903;SDS011;3997;48.416;8.512;2023-07-31T01:49:12;4.68;;;2.80;;
7903;SDS011;3997;48.416;8.512;2023-07-31T01:51:38;2.47;;;2.35;;
7903;SDS011;3997;48.416;8.512;2023-07-31T01:54:05;3.50;;;2.47;;
7903;SDS011;3997;48.416;8.512;2023-07-31T01:56:31;3.00;;;2.80;;
7903;SDS011;3997;48.416;8.512;2023-07-31T01:58:58;4.47;;;2.83;;
7903;SDS011;3997;48.416;8.512;2023-07-31T02:01:25;3.08;;;2.78;;
7903;SDS011;3997;48.416;8.512;2023-07-31T02:03:52;2.78;;;2.60;;
7903;SDS011;3997;48.416;8.512;2023-07-31T02:06:19;3.25;;;2.58;;
7903;SDS011;3997;48.416;8.512;2023-07-31T02:08:45;2.75;;;2.20;;
7903;SDS011;3997;48.416;8.512;2023-07-31T02:11:12;2.97;;;2.60;;
7903;SDS011;3997;48.416;8.512;2023-07-31T02:13:38;3.25;;;2.80;;
7903;SDS011;3997;48.416;8.512;2023-07-31T02:16:04;6.35;;;3.00;;
7903;SDS011;3997;48.416;8.512;2023-07-31T02:18:32;4.95;;;2.42;;
7903;SDS011;3997;48.416;8.512;2023-07-31T02:20:59;2.60;;;2.40;;
7903;SDS011;3997;48.416;8.512;2023-07-31T02:23:25;2.58;;;2.38;;
7903;SDS011;3997;48.416;8.512;2023-07-31T02:25:52;2.83;;;2.60;;
7903;SDS011;3997;48.416;8.512;2023-07-31T02:28:18;4.18;;;2.85;;
7903;SDS011;3997;48.416;8.512;2023-07-31T02:30:44;3.20;;;2.90;;
7903;SDS011;3997;48.416;8.512;2023-07-31T02:33:11;2.85;;;2.65;;
7903;SDS011;3997;48.416;8.512;2023-07-31T02:35:39;3.75;;;2.70;;
7903;SDS011;3997;48.416;8.512;2023-07-31T02:38:06;2.83;;;2.40;;
7903;SDS011;3997;48.416;8.512;2023-07-31T02:40:32;2.90;;;2.60;;
7903;SDS011;3997;48.416;8.512;2023-07-31T02:42:59;2.42;;;2.10;;
7903;SDS011;3997;48.416;8.512;2023-07-31T02:45:25;4.25;;;2.40;;
7903;SDS011;3997;48.416;8.512;2023-07-31T02:47:51;3.55;;;2.60;;
7903;SDS011;3997;48.416;8.512;2023-07-31T02:50:18;2.47;;;2.28;;
7903;SDS011;3997;48.416;8.512;2023-07-31T02:52:46;5.88;;;2.30;;
7903;SDS011;3997;48.416;8.512;2023-07-31T02:55:12;4.82;;;2.60;;
7903;SDS011;3997;48.416;8.512;2023-07-31T02:57:38;2.65;;;2.47;;
7903;SDS011;3997;48.416;8.512;2023-07-31T03:00:05;4.22;;;2.60;;
7903;SDS011;3997;48.416;8.512;2023-07-31T03:02:32;3.20;;;2.90;;
7903;SDS011;3997;48.416;8.512;2023-07-31T03:04:59;2.47;;;2.28;;
7903;SDS011;3997;48.416;8.512;2023-07-31T03:07:25;3.55;;;2.45;;
7903;SDS011;3997;48.416;8.512;2023-07-31T03:09:53;2.78;;;2.58;;
7903;SDS011;3997;48.416;8.512;2023-07-31T03:12:19;2.42;;;2.33;;
7903;SDS011;3997;48.416;8.512;2023-07-31T03:14:46;4.65;;;2.67;;
7903;SDS011;3997;48.416;8.512;2023-07-31T03:17:12;4.18;;;2.10;;
7903;SDS011;3997;48.416;8.512;2023-07-31T03:19:39;3.53;;;2.75;;
7903;SDS011;3997;48.416;8.512;2023-07-31T03:22:05;4.10;;;2.35;;
7903;SDS011;3997;48.416;8.512;2023-07-31T03:24:31;3.28;;;2.50;;
7903;SDS011;3997;48.416;8.512;2023-07-31T03:26:59;4.00;;;2.70;;
7903;SDS011;3997;48.416;8.512;2023-07-31T03:29:26;5.50;;;2.65;;
7903;SDS011;3997;48.416;8.512;2023-07-31T03:31:52;2.95;;;2.35;;
7903;SDS011;3997;48.416;8.512;2023-07-31T03:34:18;2.55;;;2.08;;
7903;SDS011;3997;48.416;8.512;2023-07-31T03:36:45;3.17;;;2.88;;
7903;SDS011;3997;48.416;8.512;2023-07-31T03:39:11;3.78;;;2.50;;
7903;SDS011;3997;48.416;8.512;2023-07-31T03:41:38;2.50;;;2.30;;
7903;SDS011;3997;48.416;8.512;2023-07-31T03:44:06;2.60;;;2.40;;
7903;SDS011;3997;48.416;8.512;2023-07-31T03:46:32;3.45;;;2.42;;
7903;SDS011;3997;48.416;8.512;2023-07-31T03:48:59;2.45;;;2.17;;
7903;SDS011;3997;48.416;8.512;2023-07-31T03:51:26;2.83;;;2.50;;
7903;SDS011;3997;48.416;8.512;2023-07-31T03:53:52;3.88;;;3.25;;
7903;SDS011;3997;48.416;8.512;2023-07-31T03:56:19;2.85;;;2.50;;
7903;SDS011;3997;48.416;8.512;2023-07-31T03:58:45;2.58;;;2.38;;
7903;SDS011;3997;48.416;8.512;2023-07-31T04:01:13;4.57;;;2.22;;
7903;SDS011;3997;48.416;8.512;2023-07-31T04:03:39;3.72;;;2.45;;
7903;SDS011;3997;48.416;8.512;2023-07-31T04:06:06;3.10;;;2.40;;
7903;SDS011;3997;48.416;8.512;2023-07-31T04:08:33;2.83;;;2.55;;
7903;SDS011;3997;48.416;8.512;2023-07-31T04:10:59;2.33;;;2.13;;
7903;SDS011;3997;48.416;8.512;2023-07-31T04:13:26;2.38;;;2.10;;
7903;SDS011;3997;48.416;8.512;2023-07-31T04:15:53;4.97;;;2.65;;
7903;SDS011;3997;48.416;8.512;2023-07-31T04:18:21;2.58;;;2.10;;
7903;SDS011;3997;48.416;8.512;2023-07-31T04:20:48;3.45;;;2.30;;
7903;SDS011;3997;48.416;8.512;2023-07-31T04:23:14;3.38;;;2.30;;
7903;SDS011;3997;48.416;8.512;2023-07-31T04:25:41;3.28;;;2.63;;
7903;SDS011;3997;48.416;8.512;2023-07-31T04:28:07;3.38;;;2.28;;
7903;SDS011;3997;48.416;8.512;2023-07-31T04:30:34;2.65;;;2.45;;
7903;SDS011;3997;48.416;8.512;2023-07-31T04:33:01;6.85;;;2.33;;
7903;SDS011;3997;48.416;8.512;2023-07-31T04:35:30;5.68;;;2.78;;
7903;SDS011;3997;48.416;8.512;2023-07-31T04:37:56;5.80;;;2.53;;
7903;SDS011;3997;48.416;8.512;2023-07-31T04:40:22;3.90;;;2.50;;
7903;SDS011;3997;48.416;8.512;2023-07-31T04:42:50;2.80;;;2.17;;
7903;SDS011;3997;48.416;8.512;2023-07-31T04:45:16;2.03;;;1.90;;
7903;SDS011;3997;48.416;8.512;2023-07-31T04:47:43;5.75;;;2.17;;
7903;SDS011;3997;48.416;8.512;2023-07-31T04:50:11;4.15;;;2.38;;
7903;SDS011;3997;48.416;8.512;2023-07-31T04:52:39;2.53;;;2.13;;
7903;SDS011;3997;48.416;8.512;2023-07-31T04:55:06;2.42;;;1.83;;
7903;SDS011;3997;48.416;8.512;2023-07-31T04:57:32;6.85;;;2.35;;
7903;SDS011;3997;48.416;8.512;2023-07-31T04:59:58;2.72;;;2.03;;
7903;SDS011;3997;48.416;8.512;2023-07-31T05:02:24;2.17;;;1.98;;
7903;SDS011;3997;48.416;8.512;2023-07-31T05:04:51;2.35;;;2.08;;
7903;SDS011;3997;48.416;8.512;2023-07-31T05:07:17;3.28;;;2.15;;
7903;SDS011;3997;48.416;8.512;2023-07-31T05:09:45;3.85;;;2.10;;
7903;SDS011;3997;48.416;8.512;2023-07-31T05:12:11;2.42;;;2.10;;
7903;SDS011;3997;48.416;8.512;2023-07-31T05:14:38;2.40;;;2.20;;
7903;SDS011;3997;48.416;8.512;2023-07-31T05:17:05;3.33;;;2.00;;
7903;SDS011;3997;48.416;8.512;2023-07-31T05:19:32;4.55;;;2.42;;
7903;SDS011;3997;48.416;8.512;2023-07-31T05:21:58;2.45;;;2.25;;
7903;SDS011;3997;48.416;8.512;2023-07-31T05:24:25;2.42;;;2.00;;
7903;SDS011;3997;48.416;8.512;2023-07-31T05:26:52;4.07;;;2.35;;
7903;SDS011;3997;48.416;8.512;2023-07-31T05:29:19;2.50;;;2.30;;
7903;SDS011;3997;48.416;8.512;2023-07-31T05:31:46;2.53;;;2.40;;
7903;SDS011;3997;48.416;8.512;2023-07-31T05:34:12;3.40;;;2.30;;
7903;SDS011;3997;48.416;8.512;2023-07-31T05:36:39;2.88;;;2.25;;
7903;SDS011;3997;48.416;8.512;2023-07-31T05:39:05;5.13;;;2.67;;
7903;SDS011;3997;48.416;8.512;2023-07-31T05:41:32;3.28;;;2.17;;
7903;SDS011;3997;48.416;8.512;2023-07-31T05:44:01;2.38;;;2.20;;
7903;SDS011;3997;48.416;8.512;2023-07-31T05:46:27;3.72;;;2.28;;
7903;SDS011;3997;48.416;8.512;2023-07-31T05:48:54;5.97;;;2.72;;
7903;SDS011;3997;48.416;8.512;2023-07-31T05:51:20;3.88;;;2.20;;
7903;SDS011;3997;48.416;8.512;2023-07-31T05:53:46;4.20;;;2.60;;
7903;SDS011;3997;48.416;8.512;2023-07-31T05:56:13;3.47;;;1.83;;
7903;SDS011;3997;48.416;8.512;2023-07-31T05:58:39;2.42;;;2.22;;
7903;SDS011;3997;48.416;8.512;2023-07-31T06:01:09;3.75;;;2.20;;
7903;SDS011;3997;48.416;8.512;2023-07-31T06:03:36;2.80;;;2.60;;
7903;SDS011;3997;48.416;8.512;2023-07-31T06:06:02;3.40;;;2.70;;
7903;SDS011;3997;48.416;8.512;2023-07-31T06:08:29;5.10;;;2.45;;
7903;SDS011;3997;48.416;8.512;2023-07-31T06:10:55;3.28;;;2.22;;
7903;SDS011;3997;48.416;8.512;2023-07-31T06:13:22;3.20;;;2.28;;
7903;SDS011;3997;48.416;8.512;2023-07-31T06:15:48;3.97;;;2.50;;
7903;SDS011;3997;48.416;8.512;2023-07-31T06:18:17;2.58;;;2.10;;
7903;SDS011;3997;48.416;8.512;2023-07-31T06:20:43;2.60;;;2.40;;
7903;SDS011;3997;48.416;8.512;2023-07-31T06:23:10;3.00;;;2.50;;
7903;SDS011;3997;48.416;8.512;2023-07-31T06:25:36;5.10;;;2.65;;
7903;SDS011;3997;48.416;8.512;2023-07-31T06:28:03;4.70;;;2.55;;
7903;SDS011;3997;48.416;8.512;2023-07-31T06:30:29;3.17;;;2.42;;
7903;SDS011;3997;48.416;8.512;2023-07-31T06:32:56;4.78;;;2.72;;
7903;SDS011;3997;48.416;8.512;2023-07-31T06:35:24;4.68;;;2.60;;
7903;SDS011;3997;48.416;8.512;2023-07-31T06:37:50;3.88;;;2.20;;
7903;SDS011;3997;48.416;8.512;2023-07-31T06:40:17;4.88;;;2.60;;
7903;SDS011;3997;48.416;8.512;2023-07-31T06:42:44;3.22;;;2.47;;
7903;SDS011;3997;48.416;8.512;2023-07-31T06:45:11;4.00;;;2.40;;
7903;SDS011;3997;48.416;8.512;2023-07-31T06:47:37;3.55;;;2.47;;
7903;SDS011;3997;48.416;8.512;2023-07-31T06:50:04;2.63;;;2.42;;
7903;SDS011;3997;48.416;8.512;2023-07-31T06:52:32;3.05;;;2.35;;
7903;SDS011;3997;48.416;8.512;2023-07-31T06:55:02;3.55;;;2.40;;
7903;SDS011;3997;48.416;8.512;2023-07-31T06:57:29;3.67;;;2.17;;
7903;SDS011;3997;48.416;8.512;2023-07-31T06:59:56;3.03;;;2.30;;
7903;SDS011;3997;48.416;8.512;2023-07-31T07:02:24;5.45;;;2.70;;
7903;SDS011;3997;48.416;8.512;2023-07-31T07:04:50;2.35;;;2.25;;
7903;SDS011;3997;48.416;8.512;2023-07-31T07:07:17;3.15;;;2.40;;
7903;SDS011;3997;48.416;8.512;2023-07-31T07:09:45;3.58;;;2.40;;
7903;SDS011;3997;48.416;8.512;2023-07-31T07:12:12;4.53;;;2.75;;
7903;SDS011;3997;48.416;8.512;2023-07-31T07:14:38;3.97;;;2.70;;
7903;SDS011;3997;48.416;8.512;2023-07-31T07:17:05;3.20;;;2.10;;
7903;SDS011;3997;48.416;8.512;2023-07-31T07:19:31;2.95;;;2.45;;
7903;SDS011;3997;48.416;8.512;2023-07-31T07:21:58;5.15;;;2.50;;
7903;SDS011;3997;48.416;8.512;2023-07-31T07:24:26;2.72;;;2.15;;
7903;SDS011;3997;48.416;8.512;2023-07-31T07:26:54;4.22;;;2.00;;
7903;SDS011;3997;48.416;8.512;2023-07-31T07:29:20;2.85;;;2.42;;
7903;SDS011;3997;48.416;8.512;2023-07-31T07:31:47;3.97;;;2.28;;
7903;SDS011;3997;48.416;8.512;2023-07-31T07:34:13;3.17;;;2.60;;
7903;SDS011;3997;48.416;8.512;2023-07-31T07:36:40;4.40;;;2.58;;
7903;SDS011;3997;48.416;8.512;2023-07-31T07:39:06;2.80;;;2.42;;
7903;SDS011;3997;48.416;8.512;2023-07-31T07:41:32;3.10;;;2.22;;
7903;SDS011;3997;48.416;8.512;2023-07-31T07:44:00;4.47;;;2.53;;
7903;SDS011;3997;48.416;8.512;2023-07-31T07:46:27;5.60;;;2.13;;
7903;SDS011;3997;48.416;8.512;2023-07-31T07:48:54;3.00;;;2.00;;
7903;SDS011;3997;48.416;8.512;2023-07-31T07:51:20;4.70;;;2.00;;
7903;SDS011;3997;48.416;8.512;2023-07-31T07:53:47;3.03;;;2.13;;
7903;SDS011;3997;48.416;8.512;2023-07-31T07:56:13;3.97;;;2.28;;
7903;SDS011;3997;48.416;8.512;2023-07-31T07:58:40;4.15;;;1.92;;
7903;SDS011;3997;48.416;8.512;2023-07-31T08:01:08;2.35;;;1.88;;
7903;SDS011;3997;48.416;8.512;2023-07-31T08:03:34;4.55;;;1.88;;
7903;SDS011;3997;48.416;8.512;2023-07-31T08:06:01;6.10;;;2.30;;
7903;SDS011;3997;48.416;8.512;2023-07-31T08:08:27;3.65;;;2.00;;
7903;SDS011;3997;48.416;8.512;2023-07-31T08:10:54;4.90;;;1.98;;
7903;SDS011;3997;48.416;8.512;2023-07-31T08:13:20;2.83;;;2.05;;
7903;SDS011;3997;48.416;8.512;2023-07-31T08:15:47;4.10;;;2.20;;
7903;SDS011;3997;48.416;8.512;2023-07-31T08:18:14;6.57;;;2.30;;
7903;SDS011;3997;48.416;8.512;2023-07-31T08:20:42;5.45;;;2.78;;
7903;SDS011;3997;48.416;8.512;2023-07-31T08:23:08;5.15;;;2.50;;
7903;SDS011;3997;48.416;8.512;2023-07-31T08:25:35;4.20;;;2.10;;
7903;SDS011;3997;48.416;8.512;2023-07-31T08:28:01;3.65;;;2.03;;
7903;SDS011;3997;48.416;8.512;2023-07-31T08:30:28;4.38;;;2.63;;
7903;SDS011;3997;48.416;8.512;2023-07-31T08:32:55;4.15;;;2.10;;
7903;SDS011;3997;48.416;8.512;2023-07-31T08:35:23;2.97;;;1.85;;
7903;SDS011;3997;48.416;8.512;2023-07-31T08:37:50;4.28;;;2.13;;
7903;SDS011;3997;48.416;8.512;2023-07-31T08:40:16;3.83;;;2.15;;
7903;SDS011;3997;48.416;8.512;2023-07-31T08:42:43;5.28;;;2.60;;
7903;SDS011;3997;48.416;8.512;2023-07-31T08:45:11;4.80;;;2.45;;
7903;SDS011;3997;48.416;8.512;2023-07-31T08:47:39;4.50;;;2.75;;
7903;SDS011;3997;48.416;8.512;2023-07-31T08:50:07;3.53;;;2.60;;
7903;SDS011;3997;48.416;8.512;2023-07-31T08:52:35;4.13;;;2.65;;
7903;SDS011;3997;48.416;8.512;2023-07-31T08:55:01;5.50;;;2.30;;
7903;SDS011;3997;48.416;8.512;2023-07-31T08:57:28;4.07;;;2.38;;
7903;SDS011;3997;48.416;8.512;2023-07-31T08:59:54;3.88;;;2.47;;
7903;SDS011;3997;48.416;8.512;2023-07-31T09:02:21;3.92;;;2.42;;
7903;SDS011;3997;48.416;8.512;2023-07-31T09:04:48;4.22;;;2.08;;
7903;SDS011;3997;48.416;8.512;2023-07-31T09:07:15;3.33;;;2.40;;
7903;SDS011;3997;48.416;8.512;2023-07-31T09:09:43;4.25;;;2.55;;
7903;SDS011;3997;48.416;8.512;2023-07-31T09:12:11;2.75;;;2.50;;
7903;SDS011;3997;48.416;8.512;2023-07-31T09:14:38;5.10;;;3.20;;
7903;SDS011;3997;48.416;8.512;2023-07-31T09:17:05;9.18;;;3.42;;
7903;SDS011;3997;48.416;8.512;2023-07-31T09:19:32;4.18;;;3.15;;
7903;SDS011;3997;48.416;8.512;2023-07-31T09:21:59;2.97;;;2.70;;
7903;SDS011;3997;48.416;8.512;2023-07-31T09:24:26;4.55;;;3.13;;
7903;SDS011;3997;48.416;8.512;2023-07-31T09:26:54;3.53;;;2.85;;
7903;SDS011;3997;48.416;8.512;2023-07-31T09:29:21;3.67;;;3.33;;
7903;SDS011;3997;48.416;8.512;2023-07-31T09:31:48;4.15;;;3.00;;
7903;SDS011;3997;48.416;8.512;2023-07-31T09:34:15;3.20;;;2.90;;
7903;SDS011;3997;48.416;8.512;2023-07-31T09:36:41;3.08;;;2.80;;
7903;SDS011;3997;48.416;8.512;2023-07-31T09:39:08;4.35;;;2.83;;
7903;SDS011;3997;48.416;8.512;2023-07-31T09:41:36;3.13;;;2.65;;
7903;SDS011;3997;48.416;8.512;2023-07-31T09:44:03;3.10;;;2.80;;
7903;SDS011;3997;48.416;8.512;2023-07-31T09:46:30;3.05;;;2.60;;
7903;SDS011;3997;48.416;8.512;2023-07-31T09:49:03;2.78;;;2.58;;
7903;SDS011;3997;48.416;8.512;2023-07-31T09:51:30;3.38;;;2.70;;
7903;SDS011;3997;48.416;8.512;2023-07-31T09:53:57;3.22;;;3.00;;
7903;SDS011;3997;48.416;8.512;2023-07-31T09:56:23;5.68;;;3.05;;
7903;SDS011;3997;48.416;8.512;2023-07-31T09:58:50;4.53;;;2.92;;
7903;SDS011;3997;48.416;8.512;2023-07-31T10:01:18;2.63;;;2.50;;
7903;SDS011;3997;48.416;8.512;2023-07-31T10:03:44;3.47;;;3.03;;
7903;SDS011;3997;48.416;8.512;2023-07-31T10:06:11;4.00;;;3.20;;
7903;SDS011;3997;48.416;8.512;2023-07-31T10:08:40;3.15;;;2.85;;
7903;SDS011;3997;48.416;8.512;2023-07-31T10:11:08;3.50;;;3.20;;
7903;SDS011;3997;48.416;8.512;2023-07-31T10:13:35;3.67;;;2.95;;
7903;SDS011;3997;48.416;8.512;2023-07-31T10:16:02;2.85;;;2.63;;
7903;SDS011;3997;48.416;8.512;2023-07-31T10:18:30;3.28;;;2.97;;
7903;SDS011;3997;48.416;8.512;2023-07-31T10:20:56;4.00;;;3.08;;
7903;SDS011;3997;48.416;8.512;2023-07-31T10:23:23;3.45;;;3.10;;
7903;SDS011;3997;48.416;8.512;2023-07-31T10:25:50;4.10;;;3.30;;
7903;SDS011;3997;48.416;8.512;2023-07-31T10:28:19;4.65;;;3.38;;
7903;SDS011;3997;48.416;8.512;2023-07-31T10:30:46;4.35;;;3.20;;
7903;SDS011;3997;48.416;8.512;2023-07-31T10:33:13;4.70;;;3.60;;
7903;SDS011;3997;48.416;8.512;2023-07-31T10:35:41;3.35;;;3.03;;
7903;SDS011;3997;48.416;8.512;2023-07-31T10:38:11;5.38;;;3.20;;
7903;SDS011;3997;48.416;8.512;2023-07-31T10:40:38;2.70;;;2.50;;
7903;SDS011;3997;48.416;8.512;2023-07-31T10:43:04;3.47;;;3.17;;
7903;SDS011;3997;48.416;8.512;2023-07-31T10:45:34;4.00;;;3.30;;
7903;SDS011;3997;48.416;8.512;2023-07-31T10:48:02;5.20;;;3.20;;
7903;SDS011;3997;48.416;8.512;2023-07-31T10:50:29;3.45;;;2.92;;
7903;SDS011;3997;48.416;8.512;2023-07-31T10:52:59;3.50;;;2.60;;
7903;SDS011;3997;48.416;8.512;2023-07-31T10:55:30;3.83;;;2.63;;
7903;SDS011;3997;48.416;8.512;2023-07-31T10:57:57;4.63;;;2.85;;
7903;SDS011;3997;48.416;8.512;2023-07-31T11:00:25;3.97;;;3.45;;
7903;SDS011;3997;48.416;8.512;2023-07-31T11:02:59;3.28;;;2.97;;
7903;SDS011;3997;48.416;8.512;2023-07-31T11:05:45;3.13;;;2.92;;
7903;SDS011;3997;48.416;8.512;2023-07-31T11:08:13;3.42;;;3.13;;
7903;SDS011;3997;48.416;8.512;2023-07-31T11:10:40;3.25;;;3.05;;
7903;SDS011;3997;48.416;8.512;2023-07-31T11:13:07;3.55;;;3.25;;
7903;SDS011;3997;48.416;8.512;2023-07-31T11:15:33;3.65;;;2.90;;
7903;SDS011;3997;48.416;8.512;2023-07-31T11:18:00;3.25;;;3.00;;
7903;SDS011;3997;48.416;8.512;2023-07-31T11:20:29;3.42;;;3.10;;
7903;SDS011;3997;48.416;8.512;2023-07-31T11:22:57;3.85;;;3.30;;
7903;SDS011;3997;48.416;8.512;2023-07-31T11:25:25;3.70;;;3.30;;
7903;SDS011;3997;48.416;8.512;2023-07-31T11:27:52;4.05;;;3.75;;
7903;SDS011;3997;48.416;8.512;2023-07-31T11:30:19;4.00;;;3.30;;
7903;SDS011;3997;48.416;8.512;2023-07-31T11:32:45;3.50;;;3.20;;
7903;SDS011;3997;48.416;8.512;2023-07-31T11:35:12;4.32;;;3.17;;
7903;SDS011;3997;48.416;8.512;2023-07-31T11:37:39;3.47;;;2.95;;
7903;SDS011;3997;48.416;8.512;2023-07-31T11:40:06;5.85;;;3.58;;
7903;SDS011;3997;48.416;8.512;2023-07-31T11:42:34;3.80;;;3.50;;
7903;SDS011;3997;48.416;8.512;2023-07-31T11:45:01;3.70;;;3.40;;
7903;SDS011;3997;48.416;8.512;2023-07-31T11:47:28;3.55;;;3.25;;
7903;SDS011;3997;48.416;8.512;2023-07-31T11:49:55;4.05;;;3.75;;
7903;SDS011;3997;48.416;8.512;2023-07-31T11:52:22;3.88;;;3.33;;
7903;SDS011;3997;48.416;8.512;2023-07-31T11:54:49;4.20;;;3.80;;
7903;SDS011;3997;48.416;8.512;2023-07-31T11:57:15;3.60;;;3.33;;
7903;SDS011;3997;48.416;8.512;2023-07-31T11:59:43;4.25;;;3.90;;
7903;SDS011;3997;48.416;8.512;2023-07-31T12:02:10;4.05;;;3.50;;
7903;SDS011;3997;48.416;8.512;2023-07-31T12:04:36;3.97;;;3.67;;
7903;SDS011;3997;48.416;8.512;2023-07-31T12:07:03;4.43;;;3.70;;
7903;SDS011;3997;48.416;8.512;2023-07-31T12:09:30;3.58;;;3.28;;
7903;SDS011;3997;48.416;8.512;2023-07-31T12:11:56;3.88;;;3.58;;
7903;SDS011;3997;48.416;8.512;2023-07-31T12:14:23;4.57;;;3.95;;
7903;SDS011;3997;48.416;8.512;2023-07-31T12:16:55;4.53;;;4.13;;
7903;SDS011;3997;48.416;8.512;2023-07-31T12:19:21;4.20;;;3.90;;
7903;SDS011;3997;48.416;8.512;2023-07-31T12:21:48;3.72;;;3.53;;
7903;SDS011;3997;48.416;8.512;2023-07-31T12:24:17;5.75;;;3.90;;
7903;SDS011;3997;48.416;8.512;2023-07-31T12:26:45;4.22;;;3.65;;
7903;SDS011;3997;48.416;8.512;2023-07-31T12:29:11;4.53;;;4.07;;
7903;SDS011;3997;48.416;8.512;2023-07-31T12:31:38;4.85;;;4.15;;
7903;SDS011;3997;48.416;8.512;2023-07-31T12:34:15;4.55;;;4.13;;
7903;SDS011;3997;48.416;8.512;2023-07-31T12:36:42;3.80;;;3.50;;
7903;SDS011;3997;48.416;8.512;2023-07-31T12:39:08;4.30;;;4.00;;
7903;SDS011;3997;48.416;8.512;2023-07-31T12:41:35;4.07;;;3.67;;
7903;SDS011;3997;48.416;8.512;2023-07-31T12:44:02;4.32;;;3.97;;
7903;SDS011;3997;48.416;8.512;2023-07-31T12:46:28;6.00;;;4.22;;
7903;SDS011;3997;48.416;8.512;2023-07-31T12:48:55;4.55;;;4.15;;
7903;SDS011;3997;48.416;8.512;2023-07-31T12:51:22;4.43;;;3.90;;
7903;SDS011;3997;48.416;8.512;2023-07-31T12:53:49;4.10;;;3.90;;
7903;SDS011;3997;48.416;8.512;2023-07-31T12:56:15;4.20;;;3.80;;
7903;SDS011;3997;48.416;8.512;2023-07-31T12:58:42;3.92;;;3.63;;
7903;SDS011;3997;48.416;8.512;2023-07-31T13:01:09;5.07;;;4.25;;
7903;SDS011;3997;48.416;8.512;2023-07-31T13:03:35;4.30;;;3.90;;
7903;SDS011;3997;48.416;8.512;2023-07-31T13:06:01;4.65;;;4.15;;
7903;SDS011;3997;48.416;8.512;2023-07-31T13:08:30;4.25;;;3.90;;
7903;SDS011;3997;48.416;8.512;2023-07-31T13:10:56;4.43;;;4.03;;
7903;SDS011;3997;48.416;8.512;2023-07-31T13:13:23;4.50;;;4.10;;
7903;SDS011;3997;48.416;8.512;2023-07-31T13:15:49;5.07;;;4.20;;
7903;SDS011;3997;48.416;8.512;2023-07-31T13:18:16;4.60;;;4.18;;
7903;SDS011;3997;48.416;8.512;2023-07-31T13:20:42;4.32;;;3.92;;
7903;SDS011;3997;48.416;8.512;2023-07-31T13:23:09;3.70;;;3.40;;
7903;SDS011;3997;48.416;8.512;2023-07-31T13:25:36;4.40;;;4.00;;
7903;SDS011;3997;48.416;8.512;2023-07-31T13:28:03;4.30;;;3.90;;
7903;SDS011;3997;48.416;8.512;2023-07-31T13:30:29;5.22;;;4.38;;
7903;SDS011;3997;48.416;8.512;2023-07-31T13:32:56;4.35;;;4.05;;
7903;SDS011;3997;48.416;8.512;2023-07-31T13:35:22;4.90;;;4.50;;
7903;SDS011;3997;48.416;8.512;2023-07-31T13:37:48;4.35;;;4.05;;
7903;SDS011;3997;48.416;8.512;2023-07-31T13:40:14;4.25;;;3.67;;
7903;SDS011;3997;48.416;8.512;2023-07-31T13:42:42;4.20;;;3.88;;
7903;SDS011;3997;48.416;8.512;2023-07-31T13:45:08;4.75;;;3.88;;
7903;SDS011;3997;48.416;8.512;2023-07-31T13:47:35;4.40;;;3.90;;
7903;SDS011;3997;48.416;8.512;2023-07-31T13:50:02;4.40;;;4.00;;
7903;SDS011;3997;48.416;8.512;2023-07-31T13:52:28;4.50;;;4.10;;
7903;SDS011;3997;48.416;8.512;2023-07-31T13:54:55;4.43;;;4.05;;
7903;SDS011;3997;48.416;8.512;2023-07-31T13:57:21;4.03;;;3.72;;
7903;SDS011;3997;48.416;8.512;2023-07-31T13:59:49;4.32;;;4.03;;
7903;SDS011;3997;48.416;8.512;2023-07-31T14:02:16;4.28;;;3.60;;
7903;SDS011;3997;48.416;8.512;2023-07-31T14:04:42;4.03;;;3.72;;
7903;SDS011;3997;48.416;8.512;2023-07-31T14:07:09;4.30;;;3.80;;
7903;SDS011;3997;48.416;8.512;2023-07-31T14:09:36;3.97;;;3.67;;
7903;SDS011;3997;48.416;8.512;2023-07-31T14:12:02;4.60;;;4.25;;
7903;SDS011;3997;48.416;8.512;2023-07-31T14:14:29;4.25;;;3.85;;
7903;SDS011;3997;48.416;8.512;2023-07-31T14:16:57;4.65;;;4.20;;
7903;SDS011;3997;48.416;8.512;2023-07-31T14:19:23;4.57;;;4.18;;
7903;SDS011;3997;48.416;8.512;2023-07-31T14:21:50;4.18;;;3.40;;
7903;SDS011;3997;48.416;8.512;2023-07-31T14:24:16;3.88;;;3.65;;
7903;SDS011;3997;48.416;8.512;2023-07-31T14:26:43;3.72;;;3.42;;
7903;SDS011;3997;48.416;8.512;2023-07-31T14:29:09;4.07;;;3.72;;
7903;SDS011;3997;48.416;8.512;2023-07-31T14:31:35;3.72;;;3.42;;
7903;SDS011;3997;48.416;8.512;2023-07-31T14:34:03;4.88;;;3.70;;
7903;SDS011;3997;48.416;8.512;2023-07-31T14:36:30;3.92;;;3.67;;
7903;SDS011;3997;48.416;8.512;2023-07-31T14:38:56;4.55;;;3.65;;
7903;SDS011;3997;48.416;8.512;2023-07-31T14:41:22;4.07;;;3.65;;
7903;SDS011;3997;48.416;8.512;2023-07-31T14:43:49;3.80;;;3.50;;
7903;SDS011;3997;48.416;8.512;2023-07-31T14:46:15;4.00;;;3.60;;
7903;SDS011;3997;48.416;8.512;2023-07-31T14:48:42;4.15;;;3.85;;
7903;SDS011;3997;48.416;8.512;2023-07-31T14:51:09;3.50;;;3.20;;
7903;SDS011;3997;48.416;8.512;2023-07-31T14:53:36;3.70;;;3.40;;
7903;SDS011;3997;48.416;8.512;2023-07-31T14:56:02;3.88;;;3.58;;
7903;SDS011;3997;48.416;8.512;2023-07-31T14:58:29;4.22;;;3.90;;
7903;SDS011;3997;48.416;8.512;2023-07-31T15:00:55;4.07;;;3.67;;
7903;SDS011;3997;48.416;8.512;2023-07-31T15:03:22;5.60;;;3.60;;
7903;SDS011;3997;48.416;8.512;2023-07-31T15:05:50;4.25;;;3.85;;
7903;SDS011;3997;48.416;8.512;2023-07-31T15:08:17;4.80;;;3.97;;
7903;SDS011;3997;48.416;8.512;2023-07-31T15:10:45;4.07;;;3.78;;
7903;SDS011;3997;48.416;8.512;2023-07-31T15:13:11;4.05;;;3.50;;
7903;SDS011;3997;48.416;8.512;2023-07-31T15:15:37;4.18;;;3.83;;